Hawi, Hawaii
Current Conditions -  °F | °C
As of 11:05 AM on Thursday 20 Nov 2014 (Local Time) from PHSF Reporting Station
Rain Showers Rain Showers  
Wind Chill: 59°   Ceiling: 5500
Heat Index: 59°   Visibility: 3mi
Dew Point: 55°   Wind: 15mph
Humidity: 88%   Direction: 150°SSE
Pressure: 30.45"   Gusts: 26mph
Location:  20.24°N, 155.82°W
Report Text: PHSF 202105Z AUTO 15013G23KT 3SM -SHRA FEW023 SCT040 BKN055 15/13 A3045 RMK AO2 $
Loading
Personal Weather Stations






























Interactive Weather Map New forecast layout! Learn more

10-Day Weather Forecast

Advertisements
Track Severe Weather on mobile